Accueil
METAR-TAF:

METAR-TAF

Aéroports :

Aéroport international de Genève

Genève, Suisse

latitude: 46-15N, longitude: 006-08E, altitude: 420 m

Observation

Le bulletin a été fait il y a 24 minutes, à 19:20 UTC
Vent 1 kt de direction variable
Température 7°C
Humidité 70%
Pression 1031 hPa
Visibilité 10 km ou plus
pas de nuages en-dessous de 1500 mètres et pas de cumulonimbus.

METAR: LSGG 021920Z VRB01KT CAVOK 07/02 Q1031 NOSIG

Heure: 20:44 (19:44 UTC)

Prévision

Le bulletin a été fait il y a 2 heures et 19 minutes, à 17:25 UTC
Prévision valable du 02 à 18 UTC au 03 à 24 UTC
Vent 2 kt de direction variable
Visibilité 10 km ou plus
pas de nuages en-dessous de 1500 mètres et pas de cumulonimbus.
Temporairement
du 03 à 00 UTC au 03 à 08 UTC
Visibilité: 4500 m
brume

TAF: LSGG 021725Z 0218/0324 VRB02KT CAVOK TX14/0315Z TNM00/0306Z TEMPO 0300/0308 4500 BR NSC

Observations et prévisions météorologiques de plus de 4000 aéroports (messages METAR et TAF).

Les stations disponibles sont représentées par des disques jaunes et rouges sur la carte.

Passer la souris dessus pour voir le nom de la station.

Cliquer dessus pour voir les observations et prévisions météorologiques.

Pour changer de carte: cliquez sur les boutons verts avec une croix noire pour zoomer, sur le bouton vert avec un tiret pour effectuer un zoom arrière, ou sur les flèches vertes pour les cartes adjacentes.


METAR-TAF: